sensor_id;sensor_type;location;lat;lon;timestamp;P1;durP1;ratioP1;P2;durP2;ratioP2
13973;SDS011;7060;43.770;4.008;2024-03-17T00:01:05;17.17;;;10.77;;
13973;SDS011;7060;43.770;4.008;2024-03-17T00:03:32;14.10;;;7.60;;
13973;SDS011;7060;43.770;4.008;2024-03-17T00:06:01;11.67;;;6.33;;
13973;SDS011;7060;43.770;4.008;2024-03-17T00:08:27;9.43;;;4.90;;
13973;SDS011;7060;43.770;4.008;2024-03-17T00:10:54;11.27;;;6.63;;
13973;SDS011;7060;43.770;4.008;2024-03-17T00:13:21;7.70;;;4.50;;
13973;SDS011;7060;43.770;4.008;2024-03-17T00:15:48;7.60;;;4.13;;
13973;SDS011;7060;43.770;4.008;2024-03-17T00:18:14;7.37;;;3.83;;
13973;SDS011;7060;43.770;4.008;2024-03-17T00:20:42;7.23;;;3.27;;
13973;SDS011;7060;43.770;4.008;2024-03-17T00:23:09;5.03;;;2.30;;
13973;SDS011;7060;43.770;4.008;2024-03-17T00:25:37;6.37;;;2.63;;
13973;SDS011;7060;43.770;4.008;2024-03-17T00:28:04;4.93;;;2.37;;
13973;SDS011;7060;43.770;4.008;2024-03-17T00:30:31;6.13;;;2.90;;
13973;SDS011;7060;43.770;4.008;2024-03-17T00:32:57;6.60;;;3.20;;
13973;SDS011;7060;43.770;4.008;2024-03-17T00:35:24;6.47;;;3.20;;
13973;SDS011;7060;43.770;4.008;2024-03-17T00:37:51;5.30;;;2.10;;
13973;SDS011;7060;43.770;4.008;2024-03-17T00:40:20;4.40;;;2.13;;
13973;SDS011;7060;43.770;4.008;2024-03-17T00:42:46;5.73;;;2.97;;
13973;SDS011;7060;43.770;4.008;2024-03-17T00:45:14;7.33;;;1.83;;
13973;SDS011;7060;43.770;4.008;2024-03-17T00:47:40;3.57;;;1.00;;
13973;SDS011;7060;43.770;4.008;2024-03-17T00:50:09;3.70;;;1.20;;
13973;SDS011;7060;43.770;4.008;2024-03-17T00:52:36;4.30;;;1.27;;
13973;SDS011;7060;43.770;4.008;2024-03-17T00:55:04;2.80;;;0.80;;
13973;SDS011;7060;43.770;4.008;2024-03-17T00:57:32;2.73;;;1.00;;
13973;SDS011;7060;43.770;4.008;2024-03-17T00:59:59;2.70;;;0.90;;
13973;SDS011;7060;43.770;4.008;2024-03-17T01:02:25;3.90;;;1.27;;
13973;SDS011;7060;43.770;4.008;2024-03-17T01:04:52;1.70;;;0.80;;
13973;SDS011;7060;43.770;4.008;2024-03-17T01:07:18;3.30;;;1.30;;
13973;SDS011;7060;43.770;4.008;2024-03-17T01:09:46;3.73;;;1.40;;
13973;SDS011;7060;43.770;4.008;2024-03-17T01:12:12;3.20;;;1.60;;
13973;SDS011;7060;43.770;4.008;2024-03-17T01:14:41;5.77;;;1.80;;
13973;SDS011;7060;43.770;4.008;2024-03-17T01:17:07;4.93;;;2.20;;
13973;SDS011;7060;43.770;4.008;2024-03-17T01:19:34;4.50;;;1.53;;
13973;SDS011;7060;43.770;4.008;2024-03-17T01:22:00;4.13;;;2.00;;
13973;SDS011;7060;43.770;4.008;2024-03-17T01:24:27;5.83;;;1.17;;
13973;SDS011;7060;43.770;4.008;2024-03-17T01:26:57;4.40;;;1.60;;
13973;SDS011;7060;43.770;4.008;2024-03-17T01:29:24;2.93;;;1.10;;
13973;SDS011;7060;43.770;4.008;2024-03-17T01:31:52;5.03;;;1.63;;
13973;SDS011;7060;43.770;4.008;2024-03-17T01:34:19;4.57;;;1.60;;
13973;SDS011;7060;43.770;4.008;2024-03-17T01:36:45;4.47;;;1.60;;
13973;SDS011;7060;43.770;4.008;2024-03-17T01:39:12;2.30;;;1.33;;
13973;SDS011;7060;43.770;4.008;2024-03-17T01:41:39;3.20;;;1.50;;
13973;SDS011;7060;43.770;4.008;2024-03-17T01:44:06;3.13;;;0.90;;
13973;SDS011;7060;43.770;4.008;2024-03-17T01:46:32;4.63;;;1.23;;
13973;SDS011;7060;43.770;4.008;2024-03-17T01:49:01;4.30;;;1.33;;
13973;SDS011;7060;43.770;4.008;2024-03-17T01:51:29;4.27;;;1.57;;
13973;SDS011;7060;43.770;4.008;2024-03-17T01:53:57;3.20;;;1.23;;
13973;SDS011;7060;43.770;4.008;2024-03-17T01:56:23;4.13;;;0.90;;
13973;SDS011;7060;43.770;4.008;2024-03-17T01:58:50;3.90;;;1.17;;
13973;SDS011;7060;43.770;4.008;2024-03-17T02:01:17;3.50;;;1.47;;
13973;SDS011;7060;43.770;4.008;2024-03-17T02:03:44;3.13;;;1.17;;
13973;SDS011;7060;43.770;4.008;2024-03-17T02:06:11;5.40;;;1.50;;
13973;SDS011;7060;43.770;4.008;2024-03-17T02:08:49;3.23;;;1.23;;
13973;SDS011;7060;43.770;4.008;2024-03-17T02:11:23;3.20;;;1.00;;
13973;SDS011;7060;43.770;4.008;2024-03-17T02:13:52;5.37;;;1.70;;
13973;SDS011;7060;43.770;4.008;2024-03-17T02:16:18;4.03;;;2.13;;
13973;SDS011;7060;43.770;4.008;2024-03-17T02:18:46;4.33;;;2.50;;
13973;SDS011;7060;43.770;4.008;2024-03-17T02:21:13;5.07;;;2.27;;
13973;SDS011;7060;43.770;4.008;2024-03-17T02:23:42;4.23;;;2.20;;
13973;SDS011;7060;43.770;4.008;2024-03-17T02:26:08;5.07;;;2.60;;
13973;SDS011;7060;43.770;4.008;2024-03-17T02:28:39;5.63;;;2.57;;
13973;SDS011;7060;43.770;4.008;2024-03-17T02:31:06;4.87;;;2.80;;
13973;SDS011;7060;43.770;4.008;2024-03-17T02:33:34;6.40;;;2.73;;
13973;SDS011;7060;43.770;4.008;2024-03-17T02:36:00;4.97;;;2.20;;
13973;SDS011;7060;43.770;4.008;2024-03-17T02:38:29;3.67;;;1.77;;
13973;SDS011;7060;43.770;4.008;2024-03-17T02:41:16;3.90;;;1.17;;
13973;SDS011;7060;43.770;4.008;2024-03-17T02:43:44;3.60;;;1.10;;
13973;SDS011;7060;43.770;4.008;2024-03-17T02:46:10;4.77;;;1.30;;
13973;SDS011;7060;43.770;4.008;2024-03-17T02:48:38;3.10;;;1.30;;
13973;SDS011;7060;43.770;4.008;2024-03-17T02:51:10;3.23;;;1.23;;
13973;SDS011;7060;43.770;4.008;2024-03-17T02:53:40;2.93;;;1.10;;
13973;SDS011;7060;43.770;4.008;2024-03-17T02:56:07;3.00;;;1.77;;
13973;SDS011;7060;43.770;4.008;2024-03-17T02:58:36;2.57;;;1.33;;
13973;SDS011;7060;43.770;4.008;2024-03-17T03:01:04;3.10;;;1.10;;
13973;SDS011;7060;43.770;4.008;2024-03-17T03:03:31;3.77;;;1.10;;
13973;SDS011;7060;43.770;4.008;2024-03-17T03:05:58;4.93;;;1.80;;
13973;SDS011;7060;43.770;4.008;2024-03-17T03:08:26;6.93;;;1.67;;
13973;SDS011;7060;43.770;4.008;2024-03-17T03:10:53;4.87;;;2.17;;
13973;SDS011;7060;43.770;4.008;2024-03-17T03:13:20;5.10;;;2.10;;
13973;SDS011;7060;43.770;4.008;2024-03-17T03:15:48;5.67;;;2.87;;
13973;SDS011;7060;43.770;4.008;2024-03-17T03:18:15;5.57;;;1.50;;
13973;SDS011;7060;43.770;4.008;2024-03-17T03:20:42;2.70;;;1.20;;
13973;SDS011;7060;43.770;4.008;2024-03-17T03:23:10;3.93;;;1.60;;
13973;SDS011;7060;43.770;4.008;2024-03-17T03:25:37;3.90;;;1.20;;
13973;SDS011;7060;43.770;4.008;2024-03-17T03:28:04;2.97;;;1.20;;
13973;SDS011;7060;43.770;4.008;2024-03-17T03:30:35;5.83;;;1.67;;
13973;SDS011;7060;43.770;4.008;2024-03-17T03:33:03;7.50;;;1.40;;
13973;SDS011;7060;43.770;4.008;2024-03-17T03:35:31;4.43;;;1.37;;
13973;SDS011;7060;43.770;4.008;2024-03-17T03:37:58;1.97;;;1.00;;
13973;SDS011;7060;43.770;4.008;2024-03-17T03:40:26;4.40;;;1.50;;
13973;SDS011;7060;43.770;4.008;2024-03-17T03:42:53;3.23;;;1.20;;
13973;SDS011;7060;43.770;4.008;2024-03-17T03:45:20;3.27;;;1.47;;
13973;SDS011;7060;43.770;4.008;2024-03-17T03:47:47;3.23;;;1.13;;
13973;SDS011;7060;43.770;4.008;2024-03-17T03:50:18;4.30;;;1.73;;
13973;SDS011;7060;43.770;4.008;2024-03-17T03:52:46;3.10;;;1.60;;
13973;SDS011;7060;43.770;4.008;2024-03-17T03:55:15;4.37;;;1.10;;
13973;SDS011;7060;43.770;4.008;2024-03-17T03:57:43;2.40;;;1.10;;
13973;SDS011;7060;43.770;4.008;2024-03-17T04:00:13;1.83;;;1.00;;
13973;SDS011;7060;43.770;4.008;2024-03-17T04:02:40;3.40;;;1.23;;
13973;SDS011;7060;43.770;4.008;2024-03-17T04:05:08;2.87;;;1.03;;
13973;SDS011;7060;43.770;4.008;2024-03-17T04:07:37;2.00;;;1.00;;
13973;SDS011;7060;43.770;4.008;2024-03-17T04:10:05;4.00;;;1.17;;
13973;SDS011;7060;43.770;4.008;2024-03-17T04:12:33;3.43;;;1.33;;
13973;SDS011;7060;43.770;4.008;2024-03-17T04:15:00;3.93;;;1.30;;
13973;SDS011;7060;43.770;4.008;2024-03-17T04:17:28;3.67;;;1.20;;
13973;SDS011;7060;43.770;4.008;2024-03-17T04:19:55;2.67;;;1.20;;
13973;SDS011;7060;43.770;4.008;2024-03-17T04:22:22;1.20;;;0.83;;
13973;SDS011;7060;43.770;4.008;2024-03-17T04:24:51;4.53;;;1.30;;
13973;SDS011;7060;43.770;4.008;2024-03-17T04:27:19;3.23;;;1.33;;
13973;SDS011;7060;43.770;4.008;2024-03-17T04:29:46;3.53;;;0.90;;
13973;SDS011;7060;43.770;4.008;2024-03-17T04:32:14;3.13;;;1.07;;
13973;SDS011;7060;43.770;4.008;2024-03-17T04:34:41;3.50;;;1.30;;
13973;SDS011;7060;43.770;4.008;2024-03-17T04:37:09;4.03;;;1.00;;
13973;SDS011;7060;43.770;4.008;2024-03-17T04:39:37;4.70;;;1.10;;
13973;SDS011;7060;43.770;4.008;2024-03-17T04:42:06;4.60;;;1.10;;
13973;SDS011;7060;43.770;4.008;2024-03-17T04:44:33;2.77;;;1.20;;
13973;SDS011;7060;43.770;4.008;2024-03-17T04:47:00;3.17;;;1.00;;
13973;SDS011;7060;43.770;4.008;2024-03-17T04:49:27;4.10;;;1.50;;
13973;SDS011;7060;43.770;4.008;2024-03-17T04:51:54;4.20;;;1.07;;
13973;SDS011;7060;43.770;4.008;2024-03-17T04:54:21;2.00;;;1.10;;
13973;SDS011;7060;43.770;4.008;2024-03-17T04:56:48;1.53;;;0.87;;
13973;SDS011;7060;43.770;4.008;2024-03-17T04:59:17;3.67;;;1.60;;
13973;SDS011;7060;43.770;4.008;2024-03-17T05:01:44;2.63;;;1.03;;
13973;SDS011;7060;43.770;4.008;2024-03-17T05:04:11;2.47;;;1.00;;
13973;SDS011;7060;43.770;4.008;2024-03-17T05:06:38;1.77;;;1.00;;
13973;SDS011;7060;43.770;4.008;2024-03-17T05:09:07;2.40;;;1.03;;
13973;SDS011;7060;43.770;4.008;2024-03-17T05:11:34;5.47;;;1.00;;
13973;SDS011;7060;43.770;4.008;2024-03-17T05:14:03;4.70;;;1.30;;
13973;SDS011;7060;43.770;4.008;2024-03-17T05:16:31;3.33;;;1.27;;
13973;SDS011;7060;43.770;4.008;2024-03-17T05:18:58;4.10;;;1.30;;
13973;SDS011;7060;43.770;4.008;2024-03-17T05:21:26;4.50;;;1.30;;
13973;SDS011;7060;43.770;4.008;2024-03-17T05:23:55;3.03;;;1.10;;
13973;SDS011;7060;43.770;4.008;2024-03-17T05:26:23;4.80;;;1.30;;
13973;SDS011;7060;43.770;4.008;2024-03-17T05:28:50;3.03;;;1.33;;
13973;SDS011;7060;43.770;4.008;2024-03-17T05:31:18;4.20;;;1.40;;
13973;SDS011;7060;43.770;4.008;2024-03-17T05:33:48;5.30;;;1.30;;
13973;SDS011;7060;43.770;4.008;2024-03-17T05:36:17;3.37;;;1.57;;
13973;SDS011;7060;43.770;4.008;2024-03-17T05:38:45;2.57;;;1.33;;
13973;SDS011;7060;43.770;4.008;2024-03-17T05:41:12;5.33;;;1.20;;
13973;SDS011;7060;43.770;4.008;2024-03-17T05:43:39;3.30;;;1.40;;
13973;SDS011;7060;43.770;4.008;2024-03-17T05:46:07;3.00;;;1.70;;
13973;SDS011;7060;43.770;4.008;2024-03-17T05:48:35;2.60;;;1.10;;
13973;SDS011;7060;43.770;4.008;2024-03-17T05:51:05;6.60;;;1.47;;
13973;SDS011;7060;43.770;4.008;2024-03-17T05:53:33;2.03;;;1.23;;
13973;SDS011;7060;43.770;4.008;2024-03-17T05:56:00;4.20;;;2.47;;
13973;SDS011;7060;43.770;4.008;2024-03-17T05:58:29;5.57;;;1.40;;
13973;SDS011;7060;43.770;4.008;2024-03-17T06:00:56;9.33;;;1.63;;
13973;SDS011;7060;43.770;4.008;2024-03-17T06:03:23;4.30;;;1.30;;
13973;SDS011;7060;43.770;4.008;2024-03-17T06:05:50;2.50;;;1.30;;
13973;SDS011;7060;43.770;4.008;2024-03-17T06:08:20;4.17;;;1.60;;
13973;SDS011;7060;43.770;4.008;2024-03-17T06:10:47;1.90;;;1.03;;
13973;SDS011;7060;43.770;4.008;2024-03-17T06:13:15;3.03;;;1.20;;
13973;SDS011;7060;43.770;4.008;2024-03-17T06:15:43;3.33;;;1.50;;
13973;SDS011;7060;43.770;4.008;2024-03-17T06:18:12;2.40;;;1.30;;
13973;SDS011;7060;43.770;4.008;2024-03-17T06:20:40;3.90;;;1.20;;
13973;SDS011;7060;43.770;4.008;2024-03-17T06:23:08;3.23;;;1.40;;
13973;SDS011;7060;43.770;4.008;2024-03-17T06:25:39;4.00;;;1.33;;
13973;SDS011;7060;43.770;4.008;2024-03-17T06:28:07;2.83;;;1.20;;
13973;SDS011;7060;43.770;4.008;2024-03-17T06:30:35;1.80;;;1.20;;
13973;SDS011;7060;43.770;4.008;2024-03-17T06:33:03;4.87;;;1.20;;
13973;SDS011;7060;43.770;4.008;2024-03-17T06:35:30;2.00;;;1.10;;
13973;SDS011;7060;43.770;4.008;2024-03-17T06:37:58;4.23;;;1.20;;
13973;SDS011;7060;43.770;4.008;2024-03-17T06:40:26;3.53;;;1.10;;
13973;SDS011;7060;43.770;4.008;2024-03-17T06:42:56;3.03;;;1.17;;
13973;SDS011;7060;43.770;4.008;2024-03-17T06:45:23;1.37;;;0.90;;
13973;SDS011;7060;43.770;4.008;2024-03-17T06:47:50;3.20;;;1.10;;
13973;SDS011;7060;43.770;4.008;2024-03-17T06:50:17;2.17;;;0.90;;
13973;SDS011;7060;43.770;4.008;2024-03-17T06:52:44;1.60;;;1.07;;
13973;SDS011;7060;43.770;4.008;2024-03-17T06:55:11;2.30;;;1.10;;
13973;SDS011;7060;43.770;4.008;2024-03-17T06:57:41;3.67;;;1.10;;
13973;SDS011;7060;43.770;4.008;2024-03-17T07:00:11;3.80;;;1.50;;
13973;SDS011;7060;43.770;4.008;2024-03-17T07:02:39;2.47;;;1.23;;
13973;SDS011;7060;43.770;4.008;2024-03-17T07:05:11;3.00;;;1.10;;
13973;SDS011;7060;43.770;4.008;2024-03-17T07:07:40;1.63;;;0.87;;
13973;SDS011;7060;43.770;4.008;2024-03-17T07:10:07;2.40;;;1.10;;
13973;SDS011;7060;43.770;4.008;2024-03-17T07:12:36;4.03;;;1.20;;
13973;SDS011;7060;43.770;4.008;2024-03-17T07:15:04;11.97;;;4.50;;
13973;SDS011;7060;43.770;4.008;2024-03-17T07:17:33;7.17;;;3.60;;
13973;SDS011;7060;43.770;4.008;2024-03-17T07:20:00;5.77;;;3.27;;
13973;SDS011;7060;43.770;4.008;2024-03-17T07:22:28;5.73;;;3.70;;
13973;SDS011;7060;43.770;4.008;2024-03-17T07:24:55;4.07;;;2.47;;
13973;SDS011;7060;43.770;4.008;2024-03-17T07:27:26;2.40;;;1.50;;
13973;SDS011;7060;43.770;4.008;2024-03-17T07:29:53;4.50;;;1.63;;
13973;SDS011;7060;43.770;4.008;2024-03-17T07:32:20;3.00;;;1.47;;
13973;SDS011;7060;43.770;4.008;2024-03-17T07:34:49;6.40;;;2.30;;
13973;SDS011;7060;43.770;4.008;2024-03-17T07:37:16;4.90;;;2.40;;
13973;SDS011;7060;43.770;4.008;2024-03-17T07:39:43;3.23;;;1.90;;
13973;SDS011;7060;43.770;4.008;2024-03-17T07:42:15;4.27;;;2.00;;
13973;SDS011;7060;43.770;4.008;2024-03-17T07:44:43;5.17;;;1.80;;
13973;SDS011;7060;43.770;4.008;2024-03-17T07:47:10;3.43;;;1.90;;
13973;SDS011;7060;43.770;4.008;2024-03-17T07:49:37;2.57;;;1.50;;
13973;SDS011;7060;43.770;4.008;2024-03-17T07:52:06;3.67;;;1.43;;
13973;SDS011;7060;43.770;4.008;2024-03-17T07:54:33;4.73;;;1.90;;
13973;SDS011;7060;43.770;4.008;2024-03-17T07:57:02;4.27;;;1.70;;
13973;SDS011;7060;43.770;4.008;2024-03-17T07:59:29;8.77;;;2.30;;
13973;SDS011;7060;43.770;4.008;2024-03-17T08:01:56;5.20;;;2.03;;
13973;SDS011;7060;43.770;4.008;2024-03-17T08:04:23;3.00;;;1.63;;
13973;SDS011;7060;43.770;4.008;2024-03-17T08:06:50;3.35;;;1.50;;
13973;SDS011;7060;43.770;4.008;2024-03-17T08:09:19;3.50;;;1.80;;
13973;SDS011;7060;43.770;4.008;2024-03-17T08:11:45;3.87;;;1.67;;
13973;SDS011;7060;43.770;4.008;2024-03-17T08:14:13;5.10;;;1.97;;
13973;SDS011;7060;43.770;4.008;2024-03-17T08:16:41;2.50;;;1.93;;
13973;SDS011;7060;43.770;4.008;2024-03-17T08:19:08;4.17;;;2.10;;
13973;SDS011;7060;43.770;4.008;2024-03-17T08:21:35;4.30;;;2.00;;
13973;SDS011;7060;43.770;4.008;2024-03-17T08:24:02;5.40;;;1.53;;
13973;SDS011;7060;43.770;4.008;2024-03-17T08:26:31;5.17;;;1.60;;
13973;SDS011;7060;43.770;4.008;2024-03-17T08:28:58;3.37;;;1.47;;
13973;SDS011;7060;43.770;4.008;2024-03-17T08:31:25;4.13;;;1.40;;
13973;SDS011;7060;43.770;4.008;2024-03-17T08:33:51;3.13;;;1.10;;
13973;SDS011;7060;43.770;4.008;2024-03-17T08:36:18;4.43;;;1.70;;
13973;SDS011;7060;43.770;4.008;2024-03-17T08:38:46;2.33;;;1.20;;
13973;SDS011;7060;43.770;4.008;2024-03-17T08:41:14;2.83;;;1.20;;
13973;SDS011;7060;43.770;4.008;2024-03-17T08:43:43;2.33;;;0.93;;
13973;SDS011;7060;43.770;4.008;2024-03-17T08:46:10;2.13;;;1.10;;
13973;SDS011;7060;43.770;4.008;2024-03-17T08:48:39;4.10;;;1.13;;
13973;SDS011;7060;43.770;4.008;2024-03-17T08:51:07;3.70;;;1.07;;
13973;SDS011;7060;43.770;4.008;2024-03-17T08:53:35;3.37;;;0.90;;
13973;SDS011;7060;43.770;4.008;2024-03-17T08:56:03;2.07;;;0.80;;
13973;SDS011;7060;43.770;4.008;2024-03-17T08:58:31;8.00;;;1.40;;
13973;SDS011;7060;43.770;4.008;2024-03-17T09:01:02;2.47;;;0.70;;
13973;SDS011;7060;43.770;4.008;2024-03-17T09:03:30;5.17;;;0.90;;
13973;SDS011;7060;43.770;4.008;2024-03-17T09:05:57;1.70;;;0.53;;
13973;SDS011;7060;43.770;4.008;2024-03-17T09:08:24;3.37;;;0.90;;
13973;SDS011;7060;43.770;4.008;2024-03-17T09:10:53;3.13;;;0.80;;
13973;SDS011;7060;43.770;4.008;2024-03-17T09:13:22;3.57;;;0.90;;
13973;SDS011;7060;43.770;4.008;2024-03-17T09:15:52;4.63;;;1.20;;
13973;SDS011;7060;43.770;4.008;2024-03-17T09:18:21;5.13;;;1.53;;
13973;SDS011;7060;43.770;4.008;2024-03-17T09:20:57;5.10;;;1.10;;
13973;SDS011;7060;43.770;4.008;2024-03-17T09:23:25;5.53;;;1.30;;
13973;SDS011;7060;43.770;4.008;2024-03-17T09:25:57;4.27;;;1.00;;
13973;SDS011;7060;43.770;4.008;2024-03-17T09:28:24;3.53;;;0.80;;
13973;SDS011;7060;43.770;4.008;2024-03-17T09:30:51;4.20;;;1.00;;
13973;SDS011;7060;43.770;4.008;2024-03-17T09:33:20;5.87;;;1.60;;
13973;SDS011;7060;43.770;4.008;2024-03-17T09:35:55;4.97;;;1.63;;
13973;SDS011;7060;43.770;4.008;2024-03-17T09:38:23;3.63;;;1.03;;
13973;SDS011;7060;43.770;4.008;2024-03-17T09:40:50;4.83;;;1.80;;
13973;SDS011;7060;43.770;4.008;2024-03-17T09:43:18;3.83;;;1.27;;
13973;SDS011;7060;43.770;4.008;2024-03-17T09:45:46;3.93;;;1.50;;
13973;SDS011;7060;43.770;4.008;2024-03-17T09:48:14;5.07;;;2.20;;
13973;SDS011;7060;43.770;4.008;2024-03-17T09:50:48;5.20;;;1.80;;
13973;SDS011;7060;43.770;4.008;2024-03-17T09:53:21;4.37;;;2.37;;
13973;SDS011;7060;43.770;4.008;2024-03-17T09:55:50;4.20;;;1.60;;
13973;SDS011;7060;43.770;4.008;2024-03-17T09:58:17;3.63;;;1.57;;
13973;SDS011;7060;43.770;4.008;2024-03-17T10:00:44;4.20;;;1.43;;
13973;SDS011;7060;43.770;4.008;2024-03-17T10:03:12;3.30;;;1.00;;
13973;SDS011;7060;43.770;4.008;2024-03-17T10:05:39;3.40;;;0.83;;
13973;SDS011;7060;43.770;4.008;2024-03-17T10:08:07;5.10;;;1.27;;
13973;SDS011;7060;43.770;4.008;2024-03-17T10:10:52;5.50;;;1.00;;
13973;SDS011;7060;43.770;4.008;2024-03-17T10:13:20;4.17;;;1.70;;
13973;SDS011;7060;43.770;4.008;2024-03-17T10:15:49;5.00;;;1.00;;
13973;SDS011;7060;43.770;4.008;2024-03-17T10:18:20;2.90;;;1.03;;
13973;SDS011;7060;43.770;4.008;2024-03-17T10:20:49;3.63;;;1.07;;
13973;SDS011;7060;43.770;4.008;2024-03-17T10:23:21;2.77;;;0.93;;
13973;SDS011;7060;43.770;4.008;2024-03-17T10:25:49;5.20;;;0.90;;
13973;SDS011;7060;43.770;4.008;2024-03-17T10:28:16;3.20;;;0.90;;
13973;SDS011;7060;43.770;4.008;2024-03-17T10:30:56;3.60;;;1.03;;
13973;SDS011;7060;43.770;4.008;2024-03-17T10:33:25;3.73;;;0.93;;
13973;SDS011;7060;43.770;4.008;2024-03-17T10:35:58;3.03;;;0.90;;
13973;SDS011;7060;43.770;4.008;2024-03-17T10:38:29;3.30;;;0.90;;
13973;SDS011;7060;43.770;4.008;2024-03-17T10:40:56;5.53;;;1.07;;
13973;SDS011;7060;43.770;4.008;2024-03-17T10:43:23;1.33;;;0.70;;
13973;SDS011;7060;43.770;4.008;2024-03-17T10:45:51;3.37;;;1.00;;
13973;SDS011;7060;43.770;4.008;2024-03-17T10:48:20;3.47;;;0.90;;
13973;SDS011;7060;43.770;4.008;2024-03-17T10:50:53;4.60;;;1.20;;
13973;SDS011;7060;43.770;4.008;2024-03-17T10:53:27;4.23;;;1.10;;
13973;SDS011;7060;43.770;4.008;2024-03-17T10:55:59;3.67;;;1.07;;
13973;SDS011;7060;43.770;4.008;2024-03-17T10:58:33;4.97;;;1.13;;
13973;SDS011;7060;43.770;4.008;2024-03-17T11:01:02;2.73;;;1.00;;
13973;SDS011;7060;43.770;4.008;2024-03-17T11:03:31;4.03;;;1.60;;
13973;SDS011;7060;43.770;4.008;2024-03-17T11:05:59;3.27;;;1.47;;
13973;SDS011;7060;43.770;4.008;2024-03-17T11:08:30;5.00;;;1.40;;
13973;SDS011;7060;43.770;4.008;2024-03-17T11:10:59;6.83;;;1.70;;
13973;SDS011;7060;43.770;4.008;2024-03-17T11:13:27;8.60;;;1.63;;
13973;SDS011;7060;43.770;4.008;2024-03-17T11:15:55;6.33;;;1.40;;
13973;SDS011;7060;43.770;4.008;2024-03-17T11:18:36;6.30;;;1.77;;
13973;SDS011;7060;43.770;4.008;2024-03-17T11:21:07;5.87;;;1.70;;
13973;SDS011;7060;43.770;4.008;2024-03-17T11:24:01;3.10;;;1.20;;
13973;SDS011;7060;43.770;4.008;2024-03-17T11:26:30;4.63;;;1.30;;
13973;SDS011;7060;43.770;4.008;2024-03-17T11:28:59;3.13;;;1.37;;
13973;SDS011;7060;43.770;4.008;2024-03-17T11:31:35;6.80;;;1.90;;
13973;SDS011;7060;43.770;4.008;2024-03-17T11:34:27;6.40;;;1.20;;
13973;SDS011;7060;43.770;4.008;2024-03-17T11:36:56;6.20;;;2.57;;
13973;SDS011;7060;43.770;4.008;2024-03-17T11:42:17;5.57;;;1.50;;
13973;SDS011;7060;43.770;4.008;2024-03-17T11:44:53;5.10;;;1.50;;
13973;SDS011;7060;43.770;4.008;2024-03-17T11:47:21;5.30;;;1.90;;
13973;SDS011;7060;43.770;4.008;2024-03-17T11:49:48;7.93;;;1.57;;
13973;SDS011;7060;43.770;4.008;2024-03-17T11:52:16;3.30;;;1.60;;
13973;SDS011;7060;43.770;4.008;2024-03-17T11:54:45;3.33;;;1.57;;
13973;SDS011;7060;43.770;4.008;2024-03-17T11:57:14;3.60;;;1.37;;
13973;SDS011;7060;43.770;4.008;2024-03-17T11:59:50;4.80;;;1.53;;
13973;SDS011;7060;43.770;4.008;2024-03-17T12:02:18;5.77;;;2.13;;
13973;SDS011;7060;43.770;4.008;2024-03-17T12:04:47;4.57;;;1.73;;
13973;SDS011;7060;43.770;4.008;2024-03-17T12:07:14;7.30;;;1.60;;
13973;SDS011;7060;43.770;4.008;2024-03-17T12:09:42;5.10;;;1.20;;
13973;SDS011;7060;43.770;4.008;2024-03-17T12:12:11;4.20;;;1.50;;
13973;SDS011;7060;43.770;4.008;2024-03-17T12:14:41;3.70;;;1.20;;
13973;SDS011;7060;43.770;4.008;2024-03-17T12:17:08;5.30;;;1.40;;
13973;SDS011;7060;43.770;4.008;2024-03-17T12:19:37;5.50;;;1.63;;
13973;SDS011;7060;43.770;4.008;2024-03-17T12:22:03;4.03;;;1.23;;
13973;SDS011;7060;43.770;4.008;2024-03-17T12:24:32;4.63;;;1.80;;
13973;SDS011;7060;43.770;4.008;2024-03-17T12:26:59;4.10;;;1.53;;
13973;SDS011;7060;43.770;4.008;2024-03-17T12:29:30;3.77;;;1.37;;
13973;SDS011;7060;43.770;4.008;2024-03-17T12:31:58;3.93;;;1.47;;
13973;SDS011;7060;43.770;4.008;2024-03-17T12:34:28;4.10;;;1.80;;
13973;SDS011;7060;43.770;4.008;2024-03-17T12:36:56;5.07;;;1.67;;
13973;SDS011;7060;43.770;4.008;2024-03-17T12:39:25;5.17;;;1.50;;
13973;SDS011;7060;43.770;4.008;2024-03-17T12:42:02;5.40;;;1.37;;
13973;SDS011;7060;43.770;4.008;2024-03-17T12:44:33;4.73;;;1.50;;
13973;SDS011;7060;43.770;4.008;2024-03-17T12:47:00;2.93;;;1.27;;
13973;SDS011;7060;43.770;4.008;2024-03-17T12:49:28;6.13;;;1.73;;
13973;SDS011;7060;43.770;4.008;2024-03-17T12:51:55;5.47;;;1.30;;
13973;SDS011;7060;43.770;4.008;2024-03-17T12:54:23;3.57;;;1.40;;
13973;SDS011;7060;43.770;4.008;2024-03-17T12:56:51;4.63;;;1.37;;
13973;SDS011;7060;43.770;4.008;2024-03-17T12:59:48;4.60;;;1.73;;
13973;SDS011;7060;43.770;4.008;2024-03-17T13:02:33;5.20;;;1.70;;
13973;SDS011;7060;43.770;4.008;2024-03-17T13:05:07;5.27;;;2.03;;
13973;SDS011;7060;43.770;4.008;2024-03-17T13:07:40;5.50;;;1.70;;
13973;SDS011;7060;43.770;4.008;2024-03-17T13:10:07;7.00;;;2.10;;
13973;SDS011;7060;43.770;4.008;2024-03-17T13:12:36;6.70;;;2.40;;
13973;SDS011;7060;43.770;4.008;2024-03-17T13:15:05;5.30;;;1.67;;
13973;SDS011;7060;43.770;4.008;2024-03-17T13:17:32;3.87;;;1.70;;
13973;SDS011;7060;43.770;4.008;2024-03-17T13:20:00;5.87;;;1.50;;
13973;SDS011;7060;43.770;4.008;2024-03-17T13:22:27;5.17;;;1.60;;
13973;SDS011;7060;43.770;4.008;2024-03-17T13:24:54;3.28;;;1.60;;
13973;SDS011;7060;43.770;4.008;2024-03-17T13:27:22;4.60;;;1.45;;
13973;SDS011;7060;43.770;4.008;2024-03-17T13:29:49;5.23;;;2.23;;
13973;SDS011;7060;43.770;4.008;2024-03-17T13:32:17;8.18;;;2.42;;
13973;SDS011;7060;43.770;4.008;2024-03-17T13:34:44;3.75;;;1.45;;
13973;SDS011;7060;43.770;4.008;2024-03-17T13:37:12;4.65;;;2.10;;
13973;SDS011;7060;43.770;4.008;2024-03-17T13:39:42;5.38;;;1.88;;
13973;SDS011;7060;43.770;4.008;2024-03-17T13:42:09;6.37;;;1.80;;
13973;SDS011;7060;43.770;4.008;2024-03-17T13:44:36;4.35;;;1.77;;
13973;SDS011;7060;43.770;4.008;2024-03-17T13:47:04;5.63;;;1.83;;
13973;SDS011;7060;43.770;4.008;2024-03-17T13:49:34;4.37;;;2.10;;
13973;SDS011;7060;43.770;4.008;2024-03-17T13:52:01;5.30;;;2.20;;
13973;SDS011;7060;43.770;4.008;2024-03-17T13:54:30;5.67;;;2.03;;
13973;SDS011;7060;43.770;4.008;2024-03-17T13:56:57;4.40;;;1.87;;
13973;SDS011;7060;43.770;4.008;2024-03-17T13:59:27;7.60;;;1.97;;
13973;SDS011;7060;43.770;4.008;2024-03-17T14:01:54;6.00;;;2.10;;
13973;SDS011;7060;43.770;4.008;2024-03-17T14:04:21;4.23;;;2.17;;
13973;SDS011;7060;43.770;4.008;2024-03-17T14:06:50;4.07;;;1.90;;
13973;SDS011;7060;43.770;4.008;2024-03-17T14:09:17;5.17;;;1.90;;
13973;SDS011;7060;43.770;4.008;2024-03-17T14:11:44;6.53;;;1.93;;
13973;SDS011;7060;43.770;4.008;2024-03-17T14:14:11;8.33;;;2.20;;
13973;SDS011;7060;43.770;4.008;2024-03-17T14:16:39;4.93;;;1.80;;
13973;SDS011;7060;43.770;4.008;2024-03-17T14:19:08;7.07;;;2.27;;
13973;SDS011;7060;43.770;4.008;2024-03-17T14:21:35;5.63;;;2.27;;
13973;SDS011;7060;43.770;4.008;2024-03-17T14:24:04;3.30;;;1.67;;
13973;SDS011;7060;43.770;4.008;2024-03-17T14:26:32;5.47;;;1.73;;
13973;SDS011;7060;43.770;4.008;2024-03-17T14:29:00;6.37;;;1.63;;
13973;SDS011;7060;43.770;4.008;2024-03-17T14:31:30;5.20;;;1.70;;
13973;SDS011;7060;43.770;4.008;2024-03-17T14:33:57;7.13;;;1.90;;
13973;SDS011;7060;43.770;4.008;2024-03-17T14:36:24;4.13;;;1.57;;
13973;SDS011;7060;43.770;4.008;2024-03-17T14:38:53;4.23;;;1.33;;
13973;SDS011;7060;43.770;4.008;2024-03-17T14:41:22;5.40;;;1.50;;
13973;SDS011;7060;43.770;4.008;2024-03-17T14:43:49;4.03;;;1.27;;
13973;SDS011;7060;43.770;4.008;2024-03-17T14:46:16;7.33;;;1.93;;
13973;SDS011;7060;43.770;4.008;2024-03-17T14:48:44;8.00;;;1.70;;
13973;SDS011;7060;43.770;4.008;2024-03-17T14:51:12;3.53;;;1.20;;
13973;SDS011;7060;43.770;4.008;2024-03-17T14:53:39;3.40;;;1.30;;
13973;SDS011;7060;43.770;4.008;2024-03-17T14:56:13;5.33;;;1.33;;
13973;SDS011;7060;43.770;4.008;2024-03-17T14:58:43;4.17;;;1.33;;
13973;SDS011;7060;43.770;4.008;2024-03-17T15:01:12;4.47;;;1.30;;
13973;SDS011;7060;43.770;4.008;2024-03-17T15:03:40;4.03;;;1.20;;
13973;SDS011;7060;43.770;4.008;2024-03-17T15:06:11;4.53;;;1.63;;
13973;SDS011;7060;43.770;4.008;2024-03-17T15:08:40;4.07;;;1.37;;
13973;SDS011;7060;43.770;4.008;2024-03-17T15:11:07;2.70;;;1.07;;